Time,TemperatureF,DewpointF,PressureIn,WindDirection,WindDirectionDegrees,WindSpeedMPH,WindSpeedGustMPH,Humidity,HourlyPrecipIn,Conditions,Clouds,dailyrainin,SoftwareType,DateUTC
2013-07-02 00:02:00,69.6,55.6,-100.00,North,-999,0.0,0.0,61,0.00,,,-99.99,FreeWX-Wi 1.01,2013-07-02 04:02:00,
2013-07-02 00:12:00,69.6,55.9,-100.00,North,-999,0.0,0.0,62,0.00,,,-99.99,FreeWX-Wi 1.01,2013-07-02 04:12:00,
2013-07-02 00:22:00,69.4,55.8,-100.00,North,-999,0.0,0.0,62,0.00,,,-99.99,FreeWX-Wi 1.01,2013-07-02 04:22:00,
2013-07-02 00:32:00,69.4,55.8,-100.00,North,-999,0.0,0.0,62,0.00,,,-99.99,FreeWX-Wi 1.01,2013-07-02 04:32:00,
2013-07-02 00:42:00,69.4,55.8,-100.00,North,-999,0.0,0.0,62,0.00,,,-99.99,FreeWX-Wi 1.01,2013-07-02 04:42:00,
2013-07-02 00:52:00,69.4,55.8,-100.00,North,-999,0.0,0.0,62,0.00,,,-99.99,FreeWX-Wi 1.01,2013-07-02 04:52:00,
2013-07-02 01:02:00,69.3,55.8,-100.00,North,-999,0.0,0.0,62,0.00,,,-99.99,FreeWX-Wi 1.01,2013-07-02 05:02:00,
2013-07-02 01:12:00,69.3,55.8,-100.00,North,-999,0.0,0.0,62,0.00,,,-99.99,FreeWX-Wi 1.01,2013-07-02 05:12:00,
2013-07-02 01:22:00,69.3,55.8,-100.00,North,-999,0.0,0.0,62,0.00,,,-99.99,FreeWX-Wi 1.01,2013-07-02 05:22:00,
2013-07-02 01:32:00,69.3,56.1,-100.00,North,-999,0.0,0.0,63,0.00,,,-99.99,FreeWX-Wi 1.01,2013-07-02 05:32:00,
2013-07-02 01:42:00,69.3,56.1,-100.00,North,-999,0.0,0.0,63,0.00,,,-99.99,FreeWX-Wi 1.01,2013-07-02 05:42:00,
2013-07-02 01:52:00,69.3,56.1,-100.00,North,-999,0.0,0.0,63,0.00,,,-99.99,FreeWX-Wi 1.01,2013-07-02 05:52:00,
2013-07-02 02:02:00,69.1,55.9,-100.00,North,-999,0.0,0.0,63,0.00,,,-99.99,FreeWX-Wi 1.01,2013-07-02 06:02:00,
2013-07-02 02:12:00,69.1,55.9,-100.00,North,-999,0.0,0.0,63,0.00,,,-99.99,FreeWX-Wi 1.01,2013-07-02 06:12:00,
2013-07-02 02:22:00,69.3,56.5,-100.00,North,-999,0.0,0.0,64,0.00,,,-99.99,FreeWX-Wi 1.01,2013-07-02 06:22:00,
2013-07-02 02:32:00,69.3,56.5,-100.00,North,-999,0.0,0.0,64,0.00,,,-99.99,FreeWX-Wi 1.01,2013-07-02 06:32:00,
2013-07-02 02:42:00,69.3,56.5,-100.00,North,-999,0.0,0.0,64,0.00,,,-99.99,FreeWX-Wi 1.01,2013-07-02 06:42:00,
2013-07-02 02:52:00,69.3,66.2,-100.00,North,-999,0.0,0.0,90,0.00,,,-99.99,FreeWX-Wi 1.01,2013-07-02 06:52:00,
2013-07-02 03:02:00,69.3,66.2,-100.00,North,-999,0.0,0.0,90,0.00,,,-99.99,FreeWX-Wi 1.01,2013-07-02 07:02:00,
2013-07-02 03:12:00,69.4,66.4,-100.00,North,-999,0.0,0.0,90,0.00,,,-99.99,FreeWX-Wi 1.01,2013-07-02 07:12:00,
2013-07-02 03:22:00,69.4,66.0,-100.00,North,-999,0.0,0.0,89,0.00,,,-99.99,FreeWX-Wi 1.01,2013-07-02 07:22:00,
2013-07-02 03:32:00,69.4,65.7,-100.00,North,-999,0.0,0.0,88,0.00,,,-99.99,FreeWX-Wi 1.01,2013-07-02 07:32:00,
2013-07-02 03:42:00,69.4,65.7,-100.00,North,-999,0.0,0.0,88,0.00,,,-99.99,FreeWX-Wi 1.01,2013-07-02 07:42:00,
2013-07-02 03:52:00,69.4,65.5,-100.00,North,-999,0.0,0.0,87,0.00,,,-99.99,FreeWX-Wi 1.01,2013-07-02 07:52:00,
2013-07-02 04:02:00,69.4,65.5,-100.00,North,-999,0.0,0.0,87,0.00,,,-99.99,FreeWX-Wi 1.01,2013-07-02 08:02:00,
2013-07-02 04:12:00,69.4,65.1,-100.00,North,-999,0.0,0.0,86,0.00,,,-99.99,FreeWX-Wi 1.01,2013-07-02 08:12:00,
2013-07-02 04:22:00,69.4,65.1,-100.00,North,-999,0.0,0.0,86,0.00,,,-99.99,FreeWX-Wi 1.01,2013-07-02 08:22:00,
2013-07-02 04:32:00,69.4,65.1,-100.00,North,-999,0.0,0.0,86,0.00,,,-99.99,FreeWX-Wi 1.01,2013-07-02 08:32:00,
2013-07-02 04:42:00,69.4,65.1,-100.00,North,-999,0.0,0.0,86,0.00,,,-99.99,FreeWX-Wi 1.01,2013-07-02 08:42:00,
2013-07-02 04:55:00,69.3,64.9,-100.00,North,-999,0.0,0.0,86,0.00,,,-99.99,FreeWX-Wi 1.01,2013-07-02 08:55:00,
2013-07-02 05:05:00,69.3,64.6,-100.00,North,-999,0.0,0.0,85,0.00,,,-99.99,FreeWX-Wi 1.01,2013-07-02 09:05:00,
2013-07-02 05:15:00,69.4,64.8,-100.00,North,-999,0.0,0.0,85,0.00,,,-99.99,FreeWX-Wi 1.01,2013-07-02 09:15:00,
2013-07-02 05:25:00,69.4,64.8,-100.00,North,-999,0.0,0.0,85,0.00,,,-99.99,FreeWX-Wi 1.01,2013-07-02 09:25:00,
2013-07-02 05:35:00,69.4,64.8,-100.00,North,-999,0.0,0.0,85,0.00,,,-99.99,FreeWX-Wi 1.01,2013-07-02 09:35:00,
2013-07-02 05:45:00,69.4,64.8,-100.00,North,-999,0.0,0.0,85,0.00,,,-99.99,FreeWX-Wi 1.01,2013-07-02 09:45:00,
2013-07-02 05:55:00,69.6,64.6,-100.00,North,-999,0.0,0.0,84,0.00,,,-99.99,FreeWX-Wi 1.01,2013-07-02 09:55:00,
2013-07-02 06:05:00,69.6,64.6,-100.00,North,-999,0.0,0.0,84,0.00,,,-99.99,FreeWX-Wi 1.01,2013-07-02 10:05:00,
2013-07-02 06:15:00,69.6,64.6,-100.00,North,-999,0.0,0.0,84,0.00,,,-99.99,FreeWX-Wi 1.01,2013-07-02 10:15:00,
2013-07-02 06:25:00,69.6,64.6,-100.00,North,-999,0.0,0.0,84,0.00,,,-99.99,FreeWX-Wi 1.01,2013-07-02 10:25:00,
2013-07-02 06:35:00,69.6,64.9,-100.00,North,-999,0.0,0.0,85,0.00,,,-99.99,FreeWX-Wi 1.01,2013-07-02 10:35:00,
2013-07-02 06:45:00,69.6,64.9,-100.00,North,-999,0.0,0.0,85,0.00,,,-99.99,FreeWX-Wi 1.01,2013-07-02 10:45:00,
2013-07-02 06:55:00,69.8,65.1,-100.00,North,-999,0.0,0.0,85,0.00,,,-99.99,FreeWX-Wi 1.01,2013-07-02 10:55:00,
2013-07-02 07:05:00,69.8,65.1,-100.00,North,-999,0.0,0.0,85,0.00,,,-99.99,FreeWX-Wi 1.01,2013-07-02 11:05:00,
2013-07-02 07:15:00,69.8,65.1,-100.00,North,-999,0.0,0.0,85,0.00,,,-99.99,FreeWX-Wi 1.01,2013-07-02 11:15:00,
2013-07-02 07:25:00,70.0,65.3,-100.00,North,-999,0.0,0.0,85,0.00,,,-99.99,FreeWX-Wi 1.01,2013-07-02 11:25:00,
2013-07-02 07:35:00,70.0,65.3,-100.00,North,-999,0.0,0.0,85,0.00,,,-99.99,FreeWX-Wi 1.01,2013-07-02 11:35:00,
2013-07-02 07:45:00,70.0,65.3,-100.00,North,-999,0.0,0.0,85,0.00,,,-99.99,FreeWX-Wi 1.01,2013-07-02 11:45:00,
2013-07-02 07:55:00,70.2,65.8,-100.00,North,-999,0.0,0.0,86,0.00,,,-99.99,FreeWX-Wi 1.01,2013-07-02 11:55:00,
2013-07-02 08:05:00,70.2,65.8,-100.00,North,-999,0.0,0.0,86,0.00,,,-99.99,FreeWX-Wi 1.01,2013-07-02 12:05:00,
2013-07-02 08:15:00,70.3,66.0,-100.00,North,-999,0.0,0.0,86,0.00,,,-99.99,FreeWX-Wi 1.01,2013-07-02 12:15:00,
2013-07-02 08:25:00,70.5,66.2,-100.00,North,-999,0.0,0.0,86,0.00,,,-99.99,FreeWX-Wi 1.01,2013-07-02 12:25:00,
2013-07-02 08:35:00,70.5,66.2,-100.00,North,-999,0.0,0.0,86,0.00,,,-99.99,FreeWX-Wi 1.01,2013-07-02 12:35:00,
2013-07-02 08:45:00,70.7,66.4,-100.00,North,-999,0.0,0.0,86,0.00,,,-99.99,FreeWX-Wi 1.01,2013-07-02 12:45:00,
2013-07-02 08:56:00,71.1,66.7,-100.00,North,-999,0.0,0.0,86,0.00,,,-99.99,FreeWX-Wi 1.01,2013-07-02 12:56:00,
2013-07-02 09:06:00,71.4,66.7,-100.00,North,-999,0.0,0.0,85,0.00,,,-99.99,FreeWX-Wi 1.01,2013-07-02 13:06:00,
2013-07-02 09:16:00,71.8,66.4,-100.00,North,-999,0.0,0.0,83,0.00,,,-99.99,FreeWX-Wi 1.01,2013-07-02 13:16:00,
2013-07-02 09:26:00,72.1,66.4,-100.00,North,-999,0.0,0.0,82,0.00,,,-99.99,FreeWX-Wi 1.01,2013-07-02 13:26:00,
2013-07-02 09:36:00,72.5,65.3,-100.00,North,-999,0.0,0.0,78,0.00,,,-99.99,FreeWX-Wi 1.01,2013-07-02 13:36:00,
2013-07-02 09:46:00,73.0,64.6,-100.00,North,-999,0.0,0.0,75,0.00,,,-99.99,FreeWX-Wi 1.01,2013-07-02 13:46:00,
2013-07-02 09:56:00,73.6,63.1,-100.00,North,-999,0.0,0.0,70,0.00,,,-99.99,FreeWX-Wi 1.01,2013-07-02 13:56:00,
2013-07-02 10:06:00,74.1,62.1,-100.00,North,-999,0.0,0.0,66,0.00,,,-99.99,FreeWX-Wi 1.01,2013-07-02 14:06:00,
2013-07-02 10:16:00,74.1,60.6,-100.00,North,-999,0.0,0.0,63,0.00,,,-99.99,FreeWX-Wi 1.01,2013-07-02 14:16:00,
2013-07-02 10:26:00,74.3,60.4,-100.00,North,-999,0.0,0.0,62,0.00,,,-99.99,FreeWX-Wi 1.01,2013-07-02 14:26:00,
2013-07-02 10:36:00,74.5,60.1,-100.00,North,-999,0.0,0.0,61,0.00,,,-99.99,FreeWX-Wi 1.01,2013-07-02 14:36:00,
2013-07-02 10:46:00,74.3,59.0,-100.00,North,-999,0.0,0.0,59,0.00,,,-99.99,FreeWX-Wi 1.01,2013-07-02 14:46:00,
2013-07-02 10:56:00,74.3,59.5,-100.00,North,-999,0.0,0.0,60,0.00,,,-99.99,FreeWX-Wi 1.01,2013-07-02 14:56:00,
2013-07-02 11:06:00,74.8,60.1,-100.00,North,-999,0.0,0.0,60,0.00,,,-99.99,FreeWX-Wi 1.01,2013-07-02 15:06:00,
2013-07-02 11:16:00,75.2,59.4,-100.00,North,-999,0.0,0.0,58,0.00,,,-99.99,FreeWX-Wi 1.01,2013-07-02 15:16:00,
2013-07-02 11:26:00,75.0,58.8,-100.00,North,-999,0.0,0.0,57,0.00,,,-99.99,FreeWX-Wi 1.01,2013-07-02 15:26:00,
2013-07-02 11:36:00,74.8,58.6,-100.00,North,-999,0.0,0.0,57,0.00,,,-99.99,FreeWX-Wi 1.01,2013-07-02 15:36:00,
2013-07-02 11:46:00,75.0,58.8,-100.00,North,-999,0.0,0.0,57,0.00,,,-99.99,FreeWX-Wi 1.01,2013-07-02 15:46:00,
2013-07-02 11:56:00,75.0,58.3,-100.00,North,-999,0.0,0.0,56,0.00,,,-99.99,FreeWX-Wi 1.01,2013-07-02 15:56:00,
2013-07-02 12:06:00,74.8,58.1,-100.00,North,-999,0.0,0.0,56,0.00,,,-99.99,FreeWX-Wi 1.01,2013-07-02 16:06:00,
2013-07-02 12:16:00,74.7,58.5,-100.00,North,-999,0.0,0.0,57,0.00,,,-99.99,FreeWX-Wi 1.01,2013-07-02 16:16:00,
2013-07-02 12:26:00,74.7,58.5,-100.00,North,-999,0.0,0.0,57,0.00,,,-99.99,FreeWX-Wi 1.01,2013-07-02 16:26:00,
2013-07-02 12:36:00,74.7,58.5,-100.00,North,-999,0.0,0.0,57,0.00,,,-99.99,FreeWX-Wi 1.01,2013-07-02 16:36:00,
2013-07-02 12:46:00,74.7,58.5,-100.00,North,-999,0.0,0.0,57,0.00,,,-99.99,FreeWX-Wi 1.01,2013-07-02 16:46:00,
2013-07-02 12:56:00,75.0,58.8,-100.00,North,-999,0.0,0.0,57,0.00,,,-99.99,FreeWX-Wi 1.01,2013-07-02 16:56:00,
2013-07-02 13:06:00,75.6,58.8,-100.00,North,-999,0.0,0.0,56,0.00,,,-99.99,FreeWX-Wi 1.01,2013-07-02 17:06:00,
2013-07-02 13:16:00,75.9,58.6,-100.00,North,-999,0.0,0.0,55,0.00,,,-99.99,FreeWX-Wi 1.01,2013-07-02 17:16:00,
2013-07-02 13:26:00,76.1,57.7,-100.00,North,-999,0.0,0.0,53,0.00,,,-99.99,FreeWX-Wi 1.01,2013-07-02 17:26:00,
2013-07-02 13:36:00,76.3,57.9,-100.00,North,-999,0.0,0.0,53,0.00,,,-99.99,FreeWX-Wi 1.01,2013-07-02 17:36:00,
2013-07-02 13:46:00,76.5,58.1,-100.00,North,-999,0.0,0.0,53,0.00,,,-99.99,FreeWX-Wi 1.01,2013-07-02 17:46:00,
2013-07-02 13:56:00,76.6,57.2,-100.00,North,-999,0.0,0.0,51,0.00,,,-99.99,FreeWX-Wi 1.01,2013-07-02 17:56:00,
2013-07-02 14:06:00,77.4,56.7,-100.00,North,-999,0.0,0.0,49,0.00,,,-99.99,FreeWX-Wi 1.01,2013-07-02 18:06:00,
2013-07-02 14:16:00,77.5,55.8,-100.00,North,-999,0.0,0.0,47,0.00,,,-99.99,FreeWX-Wi 1.01,2013-07-02 18:16:00,
2013-07-02 14:26:00,77.4,54.9,-100.00,North,-999,0.0,0.0,46,0.00,,,-99.99,FreeWX-Wi 1.01,2013-07-02 18:26:00,
2013-07-02 14:36:00,77.4,55.6,-100.00,North,-999,0.0,0.0,47,0.00,,,-99.99,FreeWX-Wi 1.01,2013-07-02 18:36:00,
2013-07-02 14:46:00,77.5,55.8,-100.00,North,-999,0.0,0.0,47,0.00,,,-99.99,FreeWX-Wi 1.01,2013-07-02 18:46:00,
2013-07-02 14:56:00,77.4,55.6,-100.00,North,-999,0.0,0.0,47,0.00,,,-99.99,FreeWX-Wi 1.01,2013-07-02 18:56:00,
2013-07-02 15:06:00,77.5,55.8,-100.00,North,-999,0.0,0.0,47,0.00,,,-99.99,FreeWX-Wi 1.01,2013-07-02 19:06:00,
2013-07-02 15:16:00,77.5,55.8,-100.00,North,-999,0.0,0.0,47,0.00,,,-99.99,FreeWX-Wi 1.01,2013-07-02 19:16:00,
2013-07-02 15:26:00,77.5,55.8,-100.00,North,-999,0.0,0.0,47,0.00,,,-99.99,FreeWX-Wi 1.01,2013-07-02 19:26:00,
2013-07-02 15:36:00,77.5,55.8,-100.00,North,-999,0.0,0.0,47,0.00,,,-99.99,FreeWX-Wi 1.01,2013-07-02 19:36:00,
2013-07-02 15:46:00,77.9,55.9,-100.00,North,-999,0.0,0.0,47,0.00,,,-99.99,FreeWX-Wi 1.01,2013-07-02 19:46:00,
2013-07-02 15:56:00,77.7,55.2,-100.00,North,-999,0.0,0.0,46,0.00,,,-99.99,FreeWX-Wi 1.01,2013-07-02 19:56:00,
2013-07-02 16:07:00,77.7,55.2,-100.00,North,-999,0.0,0.0,46,0.00,,,-99.99,FreeWX-Wi 1.01,2013-07-02 20:07:00,
2013-07-02 16:17:00,77.5,55.0,-100.00,North,-999,0.0,0.0,46,0.00,,,-99.99,FreeWX-Wi 1.01,2013-07-02 20:17:00,
2013-07-02 16:27:00,77.5,55.0,-100.00,North,-999,0.0,0.0,46,0.00,,,-99.99,FreeWX-Wi 1.01,2013-07-02 20:27:00,
2013-07-02 16:37:00,77.5,55.8,-100.00,North,-999,0.0,0.0,47,0.00,,,-99.99,FreeWX-Wi 1.01,2013-07-02 20:37:00,
2013-07-02 16:47:00,77.4,55.6,-100.00,North,-999,0.0,0.0,47,0.00,,,-99.99,FreeWX-Wi 1.01,2013-07-02 20:47:00,
2013-07-02 16:57:00,77.4,54.9,-100.00,North,-999,0.0,0.0,46,0.00,,,-99.99,FreeWX-Wi 1.01,2013-07-02 20:57:00,
2013-07-02 17:07:00,77.5,55.0,-100.00,North,-999,0.0,0.0,46,0.00,,,-99.99,FreeWX-Wi 1.01,2013-07-02 21:07:00,
2013-07-02 17:17:00,77.7,55.2,-100.00,North,-999,0.0,0.0,46,0.00,,,-99.99,FreeWX-Wi 1.01,2013-07-02 21:17:00,
2013-07-02 17:27:00,77.7,55.2,-100.00,North,-999,0.0,0.0,46,0.00,,,-99.99,FreeWX-Wi 1.01,2013-07-02 21:27:00,
2013-07-02 17:37:00,77.4,55.6,-100.00,North,-999,0.0,0.0,47,0.00,,,-99.99,FreeWX-Wi 1.01,2013-07-02 21:37:00,
2013-07-02 17:47:00,76.8,53.8,-100.00,North,-999,0.0,0.0,45,0.00,,,-99.99,FreeWX-Wi 1.01,2013-07-02 21:47:00,
2013-07-02 17:57:00,75.4,52.0,-100.00,North,-999,0.0,0.0,44,0.00,,,-99.99,FreeWX-Wi 1.01,2013-07-02 21:57:00,
2013-07-02 18:07:00,74.1,50.2,-100.00,North,-999,0.0,0.0,43,0.00,,,-99.99,FreeWX-Wi 1.01,2013-07-02 22:07:00,
2013-07-02 18:17:00,73.4,50.7,-100.00,North,-999,0.0,0.0,45,0.00,,,-99.99,FreeWX-Wi 1.01,2013-07-02 22:17:00,
2013-07-02 18:27:00,72.9,50.9,-100.00,North,-999,0.0,0.0,46,0.00,,,-99.99,FreeWX-Wi 1.01,2013-07-02 22:27:00,
2013-07-02 18:37:00,72.1,49.6,-100.00,North,-999,0.0,0.0,45,0.00,,,-99.99,FreeWX-Wi 1.01,2013-07-02 22:37:00,
2013-07-02 18:47:00,71.4,49.5,-100.00,North,-999,0.0,0.0,46,0.00,,,-99.99,FreeWX-Wi 1.01,2013-07-02 22:47:00,
2013-07-02 18:57:00,70.5,48.7,-100.00,North,-999,0.0,0.0,46,0.00,,,-99.99,FreeWX-Wi 1.01,2013-07-02 22:57:00,
2013-07-02 19:07:00,69.6,48.6,-100.00,North,-999,0.0,0.0,47,0.00,,,-99.99,FreeWX-Wi 1.01,2013-07-02 23:07:00,
2013-07-02 19:17:00,69.3,48.2,-100.00,North,-999,0.0,0.0,47,0.00,,,-99.99,FreeWX-Wi 1.01,2013-07-02 23:17:00,
2013-07-02 19:28:00,68.7,47.7,-100.00,North,-999,0.0,0.0,47,0.00,,,-99.99,FreeWX-Wi 1.01,2013-07-02 23:28:00,
2013-07-02 19:38:00,68.4,47.3,-100.00,North,-999,0.0,0.0,47,0.00,,,-99.99,FreeWX-Wi 1.01,2013-07-02 23:38:00,
2013-07-02 19:49:00,68.0,47.5,-100.00,North,-999,0.0,0.0,48,0.00,,,-99.99,FreeWX-Wi 1.01,2013-07-02 23:49:00,
2013-07-02 19:59:00,67.8,47.5,-100.00,North,-999,0.0,0.0,48,0.00,,,-99.99,FreeWX-Wi 1.01,2013-07-02 23:59:00,
2013-07-02 20:09:00,67.5,47.7,-100.00,North,-999,0.0,0.0,49,0.00,,,-99.99,FreeWX-Wi 1.01,2013-07-03 00:09:00,
2013-07-02 20:19:00,67.1,47.3,-100.00,North,-999,0.0,0.0,49,0.00,,,-99.99,FreeWX-Wi 1.01,2013-07-03 00:19:00,
2013-07-02 20:29:00,66.7,46.9,-100.00,North,-999,0.0,0.0,49,0.00,,,-99.99,FreeWX-Wi 1.01,2013-07-03 00:29:00,
2013-07-02 20:39:00,66.4,46.6,-100.00,North,-999,0.0,0.0,49,0.00,,,-99.99,FreeWX-Wi 1.01,2013-07-03 00:39:00,
2013-07-02 20:49:00,66.0,46.8,-100.00,North,-999,0.0,0.0,50,0.00,,,-99.99,FreeWX-Wi 1.01,2013-07-03 00:49:00,
2013-07-02 20:59:00,65.8,46.8,-100.00,North,-999,0.0,0.0,50,0.00,,,-99.99,FreeWX-Wi 1.01,2013-07-03 00:59:00,
2013-07-02 21:09:00,65.7,46.6,-100.00,North,-999,0.0,0.0,50,0.00,,,-99.99,FreeWX-Wi 1.01,2013-07-03 01:09:00,
2013-07-02 21:19:00,65.5,46.4,-100.00,North,-999,0.0,0.0,50,0.00,,,-99.99,FreeWX-Wi 1.01,2013-07-03 01:19:00,
2013-07-02 21:29:00,65.5,46.4,-100.00,North,-999,0.0,0.0,50,0.00,,,-99.99,FreeWX-Wi 1.01,2013-07-03 01:29:00,
2013-07-02 21:39:00,65.3,46.2,-100.00,North,-999,0.0,0.0,50,0.00,,,-99.99,FreeWX-Wi 1.01,2013-07-03 01:39:00,
2013-07-02 21:49:00,65.1,46.0,-100.00,North,-999,0.0,0.0,50,0.00,,,-99.99,FreeWX-Wi 1.01,2013-07-03 01:49:00,
2013-07-02 21:59:00,64.9,45.9,-100.00,North,-999,0.0,0.0,50,0.00,,,-99.99,FreeWX-Wi 1.01,2013-07-03 01:59:00,
2013-07-02 22:09:00,64.8,46.2,-100.00,North,-999,0.0,0.0,51,0.00,,,-99.99,FreeWX-Wi 1.01,2013-07-03 02:09:00,
2013-07-02 22:19:00,64.6,46.0,-100.00,North,-999,0.0,0.0,51,0.00,,,-99.99,FreeWX-Wi 1.01,2013-07-03 02:19:00,
2013-07-02 22:29:00,64.4,46.4,-100.00,North,-999,0.0,0.0,52,0.00,,,-99.99,FreeWX-Wi 1.01,2013-07-03 02:29:00,
2013-07-02 22:39:00,64.2,46.8,-100.00,North,-999,0.0,0.0,53,0.00,,,-99.99,FreeWX-Wi 1.01,2013-07-03 02:39:00,
2013-07-02 22:49:00,64.0,46.6,-100.00,North,-999,0.0,0.0,53,0.00,,,-99.99,FreeWX-Wi 1.01,2013-07-03 02:49:00,
2013-07-02 23:08:00,63.7,46.2,-100.00,North,-999,0.0,0.0,53,0.00,,,-99.99,FreeWX-Wi 1.01,2013-07-03 03:08:00,
2013-07-02 23:18:00,63.5,46.0,-100.00,North,-999,0.0,0.0,53,0.00,,,-99.99,FreeWX-Wi 1.01,2013-07-03 03:18:00,
2013-07-02 23:28:00,63.3,45.9,-100.00,North,-999,0.0,0.0,53,0.00,,,-99.99,FreeWX-Wi 1.01,2013-07-03 03:28:00,
2013-07-02 23:39:00,63.0,46.0,-100.00,North,-999,0.0,0.0,54,0.00,,,-99.99,FreeWX-Wi 1.01,2013-07-03 03:39:00,
2013-07-02 23:49:00,62.8,45.9,-100.00,North,-999,0.0,0.0,54,0.00,,,-99.99,FreeWX-Wi 1.01,2013-07-03 03:49:00,